Time;durP1;ratioP1;P1;durP2;ratioP2;P2;SDS_P1;SDS_P2;PMS_P1;PMS_P2;Temp;Humidity;BMP_temperature;BMP_pressure;BME280_temperature;BME280_humidity;BME280_pressure;Samples;Min_cycle;Max_cycle;Signal;HPM_P1;HPM_P2
2022/07/11 00:00:03;;;;;;;1.55;1.30;;;13.10;99.90;;;;;;5012636;28;20026;-77
2022/07/11 00:02:29;;;;;;;2.75;1.50;;;13.00;99.90;;;;;;5012686;28;20061;-77
2022/07/11 00:04:55;;;;;;;3.22;1.73;;;13.00;99.90;;;;;;5012318;28;20117;-78
2022/07/11 00:07:20;;;;;;;4.43;1.80;;;13.00;99.90;;;;;;5012489;28;20109;-77
2022/07/11 00:09:46;;;;;;;2.58;1.67;;;12.90;99.90;;;;;;5012982;28;20037;-77
2022/07/11 00:12:13;;;;;;;1.67;1.38;;;12.80;99.90;;;;;;5016173;22;20030;-75
2022/07/11 00:14:39;;;;;;;1.85;1.50;;;12.80;99.90;;;;;;4994909;28;20038;-75
2022/07/11 00:17:07;;;;;;;1.80;1.45;;;12.80;99.90;;;;;;4993651;28;20026;-75
2022/07/11 00:19:37;;;;;;;3.10;2.03;;;12.80;99.90;;;;;;4986786;28;20027;-75
2022/07/11 00:22:04;;;;;;;2.95;1.90;;;12.80;99.90;;;;;;4993870;28;20033;-75
2022/07/11 00:24:30;;;;;;;1.80;1.60;;;12.70;99.90;;;;;;4992434;28;20030;-75
2022/07/11 00:26:56;;;;;;;2.13;1.73;;;12.70;99.90;;;;;;4992948;28;20025;-74
2022/07/11 00:29:21;;;;;;;3.55;1.58;;;12.60;99.90;;;;;;4992527;28;20108;-75
2022/07/11 00:31:47;;;;;;;2.55;1.75;;;12.60;99.90;;;;;;4991223;28;20081;-75
2022/07/11 00:34:14;;;;;;;1.90;1.50;;;12.60;99.90;;;;;;4992991;28;20049;-75
2022/07/11 00:36:40;;;;;;;2.83;1.83;;;12.60;99.90;;;;;;4992736;28;20030;-75
2022/07/11 00:39:06;;;;;;;2.30;1.75;;;12.60;99.90;;;;;;4992525;28;20086;-75
2022/07/11 00:41:32;;;;;;;2.10;1.88;;;12.50;99.90;;;;;;4992998;28;20475;-75
2022/07/11 00:43:59;;;;;;;7.20;1.70;;;12.40;99.90;;;;;;4989732;28;20526;-75
2022/07/11 00:46:27;;;;;;;3.95;1.23;;;12.40;99.90;;;;;;4992203;28;20030;-75
2022/07/11 00:48:53;;;;;;;2.78;1.40;;;12.30;99.90;;;;;;4992957;28;20018;-75
2022/07/11 00:51:20;;;;;;;2.45;1.63;;;12.30;99.90;;;;;;4992412;28;20482;-75
2022/07/11 00:53:52;;;;;;;1.25;1.15;;;12.30;99.90;;;;;;4990598;28;20026;-75
2022/07/11 00:56:23;;;;;;;3.00;1.63;;;12.20;99.90;;;;;;4992084;28;20026;-75
2022/07/11 00:58:50;;;;;;;2.25;1.50;;;12.20;99.90;;;;;;4991640;28;20027;-75
2022/07/11 01:01:17;;;;;;;2.20;1.88;;;12.20;99.90;;;;;;4991945;28;20022;-75
2022/07/11 01:03:42;;;;;;;3.22;1.88;;;12.20;99.90;;;;;;4991615;28;20444;-75
2022/07/11 01:06:09;;;;;;;3.08;1.58;;;12.20;99.90;;;;;;4992065;28;20109;-75
2022/07/11 01:08:36;;;;;;;1.80;1.67;;;12.20;99.90;;;;;;4991656;28;20033;-75
2022/07/11 01:11:03;;;;;;;1.60;1.50;;;12.20;99.90;;;;;;4991902;28;20018;-75
2022/07/11 01:13:32;;;;;;;1.88;1.30;;;12.20;99.90;;;;;;4991737;28;20062;-75
2022/07/11 01:16:19;;;;;;;1.40;1.30;;;12.10;99.90;;;;;;4977897;28;20390;-75
2022/07/11 01:18:47;;;;;;;2.25;1.52;;;12.00;99.90;;;;;;4979957;28;20015;-75
2022/07/11 01:21:30;;;;;;;2.97;1.45;;;11.90;99.90;;;;;;4991515;28;20053;-75
2022/07/11 01:24:02;;;;;;;1.67;1.58;;;11.90;99.90;;;;;;4991494;28;20568;-75
2022/07/11 01:26:28;;;;;;;2.15;1.75;;;11.90;99.90;;;;;;4991694;28;20529;-74
2022/07/11 01:28:59;;;;;;;1.65;1.55;;;11.90;99.90;;;;;;4991567;28;20033;-75
2022/07/11 01:31:26;;;;;;;1.30;1.17;;;12.00;99.90;;;;;;4978909;28;20022;-75
2022/07/11 01:33:52;;;;;;;3.90;2.85;;;12.00;99.90;;;;;;4991423;28;20375;-75
2022/07/11 01:36:18;;;;;;;1.60;1.50;;;12.00;99.90;;;;;;4991263;28;20030;-75
2022/07/11 01:38:44;;;;;;;1.42;1.33;;;11.90;99.90;;;;;;4991722;28;20030;-75
2022/07/11 01:41:09;;;;;;;1.75;1.50;;;11.90;99.90;;;;;;4991172;28;20030;-75
2022/07/11 01:43:35;;;;;;;1.40;1.15;;;11.90;99.90;;;;;;4989655;28;20102;-75
2022/07/11 01:46:01;;;;;;;1.50;1.40;;;11.80;99.90;;;;;;4991413;28;20104;-75
2022/07/11 01:48:27;;;;;;;2.38;1.55;;;11.90;99.90;;;;;;4991338;28;20430;-74
2022/07/11 01:50:54;;;;;;;1.80;1.70;;;11.90;99.90;;;;;;4990975;28;20034;-75
2022/07/11 01:53:20;;;;;;;1.70;1.58;;;11.90;99.90;;;;;;4991518;28;20095;-75
2022/07/11 01:55:45;;;;;;;2.80;1.65;;;11.90;99.90;;;;;;4990681;28;20045;-75
2022/07/11 01:58:11;;;;;;;1.70;1.60;;;11.80;99.90;;;;;;4990887;28;20030;-75
2022/07/11 02:00:37;;;;;;;1.40;1.27;;;11.70;99.90;;;;;;4991469;28;20057;-75
2022/07/11 02:03:03;;;;;;;1.40;1.30;;;11.70;99.90;;;;;;4990919;28;20023;-75
2022/07/11 02:05:29;;;;;;;1.40;1.30;;;11.70;99.90;;;;;;4990613;28;20022;-75
2022/07/11 02:08:13;;;;;;;1.23;1.15;;;11.60;99.90;;;;;;4991407;28;20022;-75
2022/07/11 02:10:40;;;;;;;2.35;1.55;;;11.60;99.90;;;;;;4980981;28;20051;-75
2022/07/11 02:13:06;;;;;;;1.98;1.55;;;11.50;99.90;;;;;;4990524;28;20149;-75
2022/07/11 02:15:32;;;;;;;2.03;1.77;;;11.50;99.90;;;;;;4989418;28;20487;-75
2022/07/11 02:17:58;;;;;;;1.65;1.55;;;11.40;99.90;;;;;;4990942;28;20019;-75
2022/07/11 02:20:24;;;;;;;1.50;1.40;;;11.40;99.90;;;;;;4990600;28;20030;-75
2022/07/11 02:22:50;;;;;;;2.13;1.58;;;11.50;99.90;;;;;;4990768;28;20022;-75
2022/07/11 02:25:17;;;;;;;2.25;1.60;;;11.50;99.90;;;;;;4990530;28;20464;-75
2022/07/11 02:27:43;;;;;;;2.00;1.80;;;11.40;99.90;;;;;;4976958;28;20793;-75
2022/07/11 02:30:09;;;;;;;1.98;1.88;;;11.40;99.90;;;;;;4990774;28;20023;-74
2022/07/11 02:32:36;;;;;;;1.60;1.50;;;11.50;99.90;;;;;;4990289;28;20027;-75
2022/07/11 02:35:03;;;;;;;1.83;1.73;;;11.50;99.90;;;;;;4990699;28;20031;-75
2022/07/11 02:37:29;;;;;;;1.73;1.63;;;11.50;99.90;;;;;;4990514;28;20053;-75
2022/07/11 02:39:54;;;;;;;2.00;1.60;;;11.40;99.90;;;;;;4990757;28;20026;-75
2022/07/11 02:42:20;;;;;;;2.05;1.85;;;11.40;99.90;;;;;;5015154;23;20026;-79
2022/07/11 02:44:46;;;;;;;2.28;2.03;;;11.30;99.90;;;;;;5029972;28;20072;-81
2022/07/11 02:47:13;;;;;;;1.90;1.80;;;11.40;99.90;;;;;;5030844;28;20465;-81
2022/07/11 02:49:40;;;;;;;4.53;1.60;;;11.50;99.90;;;;;;5030484;28;20029;-80
2022/07/11 02:52:06;;;;;;;1.77;1.65;;;11.50;99.90;;;;;;5031037;28;21125;-80
2022/07/11 02:54:32;;;;;;;2.58;1.88;;;11.40;99.90;;;;;;5029427;28;20454;-80
2022/07/11 02:56:57;;;;;;;2.08;1.88;;;11.40;99.90;;;;;;5029715;28;20084;-81
2022/07/11 02:59:23;;;;;;;2.30;1.80;;;11.30;99.90;;;;;;5030011;28;20363;-81
2022/07/11 03:01:50;;;;;;;1.83;1.67;;;11.30;99.90;;;;;;5028563;28;20036;-80
2022/07/11 03:04:16;;;;;;;1.90;1.70;;;11.30;99.90;;;;;;5029159;28;20049;-81
2022/07/11 03:06:42;;;;;;;2.78;1.40;;;11.30;99.90;;;;;;5029478;28;20083;-80
2022/07/11 03:09:09;;;;;;;1.50;1.38;;;11.30;99.90;;;;;;5033349;28;20068;-80
2022/07/11 03:11:36;;;;;;;2.05;1.88;;;11.30;99.90;;;;;;5033641;28;20462;-80
2022/07/11 03:14:02;;;;;;;1.88;1.77;;;11.30;99.90;;;;;;5033332;28;20052;-80
2022/07/11 03:16:28;;;;;;;1.70;1.60;;;11.40;99.90;;;;;;5033466;28;20084;-80
2022/07/11 03:18:54;;;;;;;1.70;1.60;;;11.40;99.90;;;;;;5033890;28;20482;-80
2022/07/11 03:21:20;;;;;;;1.92;1.58;;;11.30;99.90;;;;;;5033422;28;20573;-80
2022/07/11 03:23:46;;;;;;;1.55;1.45;;;11.30;99.90;;;;;;5031978;28;20033;-81
2022/07/11 03:26:12;;;;;;;2.00;1.75;;;11.30;99.90;;;;;;5033369;28;20508;-80
2022/07/11 03:28:38;;;;;;;2.00;1.85;;;11.30;99.90;;;;;;5033094;28;20037;-80
2022/07/11 03:31:04;;;;;;;2.00;1.50;;;11.20;99.90;;;;;;5032860;28;20215;-80
2022/07/11 03:33:30;;;;;;;1.67;1.30;;;11.20;99.90;;;;;;5024774;28;20462;-80
2022/07/11 03:35:56;;;;;;;1.52;1.42;;;11.10;99.90;;;;;;5019687;28;20037;-80
2022/07/11 03:38:21;;;;;;;3.15;1.75;;;11.20;99.90;;;;;;5033051;28;20076;-80
2022/07/11 03:40:48;;;;;;;2.47;1.60;;;11.20;99.90;;;;;;5032905;28;20029;-80
2022/07/11 03:43:15;;;;;;;2.60;1.90;;;11.20;99.90;;;;;;5025297;28;20032;-80
2022/07/11 03:45:41;;;;;;;2.03;1.92;;;11.20;99.90;;;;;;5032965;28;20462;-80
2022/07/11 03:48:07;;;;;;;1.95;1.73;;;11.20;99.90;;;;;;5032876;28;20017;-80
2022/07/11 03:50:33;;;;;;;2.28;1.80;;;11.20;99.90;;;;;;5033144;28;20026;-80
2022/07/11 03:53:00;;;;;;;2.58;1.95;;;11.20;99.90;;;;;;5032948;28;20600;-80
2022/07/11 03:55:26;;;;;;;1.60;1.50;;;11.20;99.90;;;;;;5032674;28;20466;-80
2022/07/11 03:57:51;;;;;;;1.98;1.30;;;11.20;99.90;;;;;;5032545;28;20021;-80
2022/07/11 04:00:19;;;;;;;2.35;1.58;;;11.10;99.90;;;;;;5032801;28;20025;-80
2022/07/11 04:02:46;;;;;;;3.28;1.83;;;11.20;99.90;;;;;;5032538;28;20065;-80
2022/07/11 04:05:12;;;;;;;1.75;1.65;;;11.30;99.90;;;;;;5033230;28;20382;-80
2022/07/11 04:07:39;;;;;;;1.95;1.77;;;11.30;99.90;;;;;;5032645;28;20029;-80
2022/07/11 04:10:05;;;;;;;2.28;1.92;;;11.30;99.90;;;;;;5032540;28;20091;-79
2022/07/11 04:12:31;;;;;;;1.85;1.70;;;11.30;99.90;;;;;;5040865;23;20076;-75
2022/07/11 04:14:57;;;;;;;1.50;1.40;;;11.30;99.90;;;;;;5019595;28;20542;-75
2022/07/11 04:17:22;;;;;;;1.95;1.85;;;11.40;99.90;;;;;;5013702;28;20029;-75
2022/07/11 04:19:48;;;;;;;1.58;1.48;;;11.40;99.90;;;;;;5013281;28;20026;-75
2022/07/11 04:22:14;;;;;;;1.83;1.67;;;11.50;99.90;;;;;;5013627;28;20022;-75
2022/07/11 04:24:40;;;;;;;1.27;1.27;;;11.50;99.90;;;;;;5012747;28;20048;-75
2022/07/11 04:27:06;;;;;;;2.10;1.90;;;11.50;99.90;;;;;;5012956;28;20010;-75
2022/07/11 04:29:32;;;;;;;1.55;1.38;;;11.50;99.90;;;;;;5012239;28;20148;-74
2022/07/11 04:31:57;;;;;;;6.40;1.98;;;11.60;99.90;;;;;;5012538;28;20030;-75
2022/07/11 04:34:23;;;;;;;2.42;1.70;;;11.70;99.90;;;;;;5012295;28;20494;-75
2022/07/11 04:36:49;;;;;;;2.75;1.55;;;11.70;99.90;;;;;;5011967;28;20497;-76
2022/07/11 04:39:15;;;;;;;1.95;1.73;;;11.70;99.90;;;;;;5011696;28;20493;-76
2022/07/11 04:41:40;;;;;;;2.47;1.58;;;11.70;99.90;;;;;;5011593;28;20724;-75
2022/07/11 04:44:07;;;;;;;4.30;1.73;;;11.80;99.90;;;;;;5011186;28;20058;-75
2022/07/11 04:46:33;;;;;;;2.10;1.80;;;11.80;99.90;;;;;;5012052;28;21280;-75
2022/07/11 04:48:59;;;;;;;2.42;1.83;;;11.80;99.90;;;;;;5012094;28;20022;-75
2022/07/11 04:51:24;;;;;;;2.13;1.50;;;11.80;99.90;;;;;;5005355;28;20028;-75
2022/07/11 04:53:51;;;;;;;1.60;1.50;;;11.90;99.90;;;;;;5011498;28;20030;-75
2022/07/11 04:56:16;;;;;;;2.15;1.33;;;11.90;99.90;;;;;;5009686;28;20034;-75
2022/07/11 04:58:42;;;;;;;2.30;2.10;;;12.00;99.90;;;;;;5011585;28;20391;-75
2022/07/11 05:01:09;;;;;;;1.60;1.50;;;12.10;99.90;;;;;;5011584;28;20041;-75
2022/07/11 05:03:35;;;;;;;3.35;1.77;;;12.30;99.90;;;;;;5011464;28;20030;-76
2022/07/11 05:06:01;;;;;;;4.57;1.70;;;12.30;99.90;;;;;;5011812;28;20025;-75
2022/07/11 05:08:27;;;;;;;3.05;1.33;;;12.40;99.90;;;;;;5011257;28;20524;-75
2022/07/11 05:10:53;;;;;;;1.63;1.52;;;12.40;99.90;;;;;;5011042;28;20028;-75
2022/07/11 05:13:18;;;;;;;2.17;1.40;;;12.40;99.90;;;;;;5037160;23;20045;-80
2022/07/11 05:15:44;;;;;;;4.70;1.65;;;12.40;99.90;;;;;;5014175;28;20042;-79
2022/07/11 05:18:10;;;;;;;2.45;1.25;;;12.40;99.90;;;;;;5012605;28;20415;-80
2022/07/11 05:20:37;;;;;;;2.05;1.67;;;12.40;99.90;;;;;;5012547;28;20026;-79
2022/07/11 05:23:02;;;;;;;1.52;1.42;;;12.40;99.90;;;;;;5012366;28;20033;-80
2022/07/11 05:25:29;;;;;;;1.58;1.40;;;12.50;99.90;;;;;;5011408;28;20021;-80
2022/07/11 05:27:54;;;;;;;1.75;1.55;;;12.50;99.90;;;;;;5011671;28;20032;-80
2022/07/11 05:30:20;;;;;;;2.08;1.27;;;12.60;99.90;;;;;;5010225;28;20025;-80
2022/07/11 05:32:46;;;;;;;1.58;1.42;;;12.50;99.90;;;;;;5010938;28;20061;-80
2022/07/11 05:35:12;;;;;;;1.67;1.38;;;12.60;99.90;;;;;;5011410;28;20038;-79
2022/07/11 05:37:38;;;;;;;2.15;1.67;;;12.60;99.90;;;;;;5010902;28;20030;-80
2022/07/11 05:40:04;;;;;;;1.80;1.60;;;12.70;99.90;;;;;;5011254;28;20033;-79
2022/07/11 05:42:31;;;;;;;1.92;1.70;;;12.80;99.90;;;;;;5004238;28;20445;-80
2022/07/11 05:44:57;;;;;;;2.55;1.83;;;12.90;99.90;;;;;;5010280;28;20043;-79
2022/07/11 05:47:23;;;;;;;2.13;1.50;;;13.00;99.90;;;;;;5010817;28;20493;-79
2022/07/11 05:49:49;;;;;;;2.72;1.85;;;13.10;99.90;;;;;;5011300;28;20014;-80
2022/07/11 05:52:15;;;;;;;1.90;1.48;;;13.20;99.90;;;;;;5009394;28;20036;-80
2022/07/11 05:54:40;;;;;;;1.70;1.60;;;13.40;99.90;;;;;;5010601;28;20112;-80
2022/07/11 05:57:06;;;;;;;1.80;1.38;;;13.50;99.90;;;;;;5010922;28;20516;-80
2022/07/11 05:59:34;;;;;;;1.63;1.52;;;13.60;99.90;;;;;;5010989;28;20022;-80
2022/07/11 06:02:02;;;;;;;3.95;1.33;;;13.70;99.90;;;;;;5010906;28;20030;-80
2022/07/11 06:04:28;;;;;;;1.70;1.20;;;13.90;99.90;;;;;;5010976;28;20026;-79
2022/07/11 06:06:54;;;;;;;1.15;1.05;;;14.00;99.90;;;;;;5011195;28;20033;-80
2022/07/11 06:09:20;;;;;;;3.03;1.65;;;14.10;99.90;;;;;;5010363;28;20475;-80
2022/07/11 06:11:46;;;;;;;1.40;1.30;;;14.20;99.90;;;;;;5010444;28;20132;-80
2022/07/11 06:14:12;;;;;;;1.50;1.40;;;14.30;99.90;;;;;;5046874;23;20151;-77
2022/07/11 06:16:37;;;;;;;1.70;1.60;;;14.40;99.90;;;;;;5030095;28;20033;-77
2022/07/11 06:19:03;;;;;;;3.13;1.40;;;14.60;99.90;;;;;;5031268;28;20454;-77
2022/07/11 06:21:29;;;;;;;2.08;1.63;;;14.70;99.90;;;;;;5031175;28;20029;-77
2022/07/11 06:23:55;;;;;;;2.35;1.30;;;15.00;99.90;;;;;;5030438;28;20053;-77
2022/07/11 06:26:21;;;;;;;1.80;1.30;;;15.40;99.90;;;;;;5030198;28;20029;-78
2022/07/11 06:28:47;;;;;;;0.98;0.85;;;15.80;99.90;;;;;;5030013;28;20014;-77
2022/07/11 06:31:14;;;;;;;1.45;1.35;;;16.50;99.90;;;;;;5030142;28;20021;-78
2022/07/11 06:33:40;;;;;;;1.23;1.02;;;17.30;99.90;;;;;;5029774;28;20049;-78
2022/07/11 06:36:06;;;;;;;2.00;1.13;;;18.10;99.90;;;;;;5030119;28;20072;-78
2022/07/11 06:38:32;;;;;;;1.13;0.68;;;18.80;99.90;;;;;;5013191;28;20014;-78
2022/07/11 06:40:58;;;;;;;2.00;1.00;;;19.20;99.90;;;;;;5029517;28;20017;-78
2022/07/11 06:43:24;;;;;;;2.38;0.82;;;19.80;99.90;;;;;;5027913;28;20022;-78
2022/07/11 06:45:51;;;;;;;1.13;0.52;;;20.10;99.90;;;;;;5032575;28;20025;-78
2022/07/11 06:48:17;;;;;;;0.70;0.70;;;20.10;99.90;;;;;;5033695;28;20068;-78
2022/07/11 06:50:43;;;;;;;1.10;0.95;;;20.00;99.90;;;;;;5032828;28;20415;-78
2022/07/11 06:53:35;;;;;;;2.70;0.95;;;19.90;99.90;;;;;;5033147;28;20018;-78
2022/07/11 06:56:01;;;;;;;1.30;0.70;;;19.90;99.90;;;;;;5017409;28;20091;-78
2022/07/11 06:58:33;;;;;;;1.20;1.10;;;19.80;99.90;;;;;;5033491;28;20092;-78
2022/07/11 07:01:00;;;;;;;0.88;0.80;;;19.70;99.90;;;;;;5033721;28;20030;-78
2022/07/11 07:03:26;;;;;;;1.65;0.90;;;19.60;99.90;;;;;;5033675;28;20026;-78
2022/07/11 07:05:55;;;;;;;1.70;1.20;;;19.60;99.90;;;;;;5033476;28;20013;-77
2022/07/11 07:08:24;;;;;;;1.17;1.08;;;19.50;99.90;;;;;;5033440;28;20032;-77
2022/07/11 07:10:51;;;;;;;1.40;1.13;;;19.40;99.90;;;;;;5033304;28;20112;-77
2022/07/11 07:13:16;;;;;;;2.83;1.17;;;19.30;99.90;;;;;;5041798;23;20046;-78
2022/07/11 07:15:42;;;;;;;1.13;0.90;;;19.10;99.90;;;;;;5013563;28;20038;-80
2022/07/11 07:18:08;;;;;;;2.97;1.30;;;19.10;99.90;;;;;;5013007;28;20040;-79
2022/07/11 07:20:34;;;;;;;1.17;1.00;;;19.10;99.90;;;;;;5014794;28;21217;-80
2022/07/11 07:22:59;;;;;;;2.22;1.20;;;19.10;99.90;;;;;;5014340;28;20081;-79
2022/07/11 07:25:25;;;;;;;1.05;0.88;;;19.20;99.90;;;;;;5013332;28;20088;-79
2022/07/11 07:27:51;;;;;;;0.90;0.90;;;19.20;99.90;;;;;;5013691;28;20097;-79
2022/07/11 07:30:17;;;;;;;1.50;0.70;;;19.20;99.90;;;;;;5012054;28;20097;-78
2022/07/11 07:32:43;;;;;;;1.95;1.10;;;19.30;99.90;;;;;;5011771;28;20040;-78
2022/07/11 07:35:09;;;;;;;1.65;1.00;;;19.40;99.90;;;;;;5013595;28;20386;-79
2022/07/11 07:37:34;;;;;;;1.00;0.82;;;19.40;99.90;;;;;;5013323;28;20029;-79
2022/07/11 07:40:00;;;;;;;1.20;0.73;;;19.50;99.90;;;;;;5013267;28;20395;-79
2022/07/11 07:42:26;;;;;;;1.40;0.95;;;19.70;99.90;;;;;;5012470;28;20049;-79
2022/07/11 07:44:52;;;;;;;0.68;0.68;;;19.90;99.90;;;;;;5012588;28;20084;-79
2022/07/11 07:47:18;;;;;;;2.47;1.00;;;19.90;99.90;;;;;;5013368;28;20493;-79
2022/07/11 07:49:43;;;;;;;0.98;0.75;;;20.10;99.90;;;;;;5012523;28;20022;-79
2022/07/11 07:52:09;;;;;;;0.88;0.63;;;20.20;99.90;;;;;;5013402;28;20037;-80
2022/07/11 07:54:35;;;;;;;0.90;0.82;;;20.30;99.90;;;;;;5012609;28;20073;-79
2022/07/11 07:57:01;;;;;;;2.67;0.90;;;20.40;99.90;;;;;;5013667;28;20033;-79
2022/07/11 07:59:26;;;;;;;1.63;0.75;;;20.50;99.90;;;;;;5012755;28;20021;-79
2022/07/11 08:01:52;;;;;;;3.33;0.90;;;20.60;97.80;;;;;;5012985;28;20446;-79
2022/07/11 08:04:18;;;;;;;0.55;0.55;;;20.70;99.20;;;;;;5013418;28;20018;-79
2022/07/11 08:06:44;;;;;;;2.05;0.70;;;20.80;99.90;;;;;;5012952;28;20498;-79
2022/07/11 08:09:10;;;;;;;1.48;0.88;;;20.90;96.90;;;;;;5011964;28;20022;-79
2022/07/11 08:11:36;;;;;;;1.17;0.98;;;21.00;99.90;;;;;;5013621;28;20113;-79
2022/07/11 08:14:03;;;;;;;2.78;0.70;;;21.20;98.30;;;;;;5038905;23;20141;-75
2022/07/11 08:16:30;;;;;;;1.25;0.65;;;21.30;99.90;;;;;;5013866;28;20034;-75
2022/07/11 08:18:57;;;;;;;1.42;0.70;;;21.40;97.70;;;;;;5013889;28;20528;-75
2022/07/11 08:21:23;;;;;;;0.60;0.60;;;21.60;97.30;;;;;;5013813;28;20025;-75
2022/07/11 08:23:49;;;;;;;1.67;0.65;;;21.70;99.90;;;;;;5012747;28;20024;-75
2022/07/11 08:26:15;;;;;;;0.50;0.50;;;21.80;97.40;;;;;;5012895;28;20981;-75
2022/07/11 08:28:41;;;;;;;0.80;0.52;;;21.90;95.00;;;;;;5012834;28;20033;-75
2022/07/11 08:31:06;;;;;;;0.70;0.70;;;22.10;92.20;;;;;;5012639;28;20030;-74
2022/07/11 08:33:32;;;;;;;1.27;0.70;;;22.20;94.60;;;;;;5012573;28;20052;-75
2022/07/11 08:35:58;;;;;;;0.73;0.55;;;22.50;91.80;;;;;;5012689;28;20076;-75
2022/07/11 08:38:24;;;;;;;1.00;0.52;;;22.80;90.50;;;;;;5012372;28;20026;-74
2022/07/11 08:40:50;;;;;;;1.42;0.65;;;23.20;84.10;;;;;;5011158;28;20636;-75
2022/07/11 08:43:21;;;;;;;1.20;0.80;;;24.00;76.80;;;;;;5000623;28;20433;-74
2022/07/11 08:45:48;;;;;;;3.45;0.80;;;24.80;68.80;;;;;;5011818;28;20581;-75
2022/07/11 08:48:16;;;;;;;0.50;0.50;;;25.90;66.40;;;;;;5012008;28;20110;-75
2022/07/11 08:50:42;;;;;;;0.85;0.38;;;27.10;62.90;;;;;;5012525;28;20709;-74
2022/07/11 08:53:09;;;;;;;2.05;0.60;;;28.20;57.30;;;;;;5027270;28;20117;-75
2022/07/11 08:55:35;;;;;;;0.63;0.30;;;29.20;54.20;;;;;;5011989;28;20029;-75
2022/07/11 08:58:02;;;;;;;0.50;0.50;;;30.00;52.00;;;;;;5011636;28;20025;-74
2022/07/11 09:00:28;;;;;;;4.28;0.50;;;31.00;50.10;;;;;;5011499;28;20418;-74
2022/07/11 09:02:54;;;;;;;1.10;0.40;;;31.90;46.90;;;;;;5026992;28;20025;-75
2022/07/11 09:05:20;;;;;;;4.97;0.60;;;32.40;44.70;;;;;;5010672;28;20037;-75
2022/07/11 09:07:50;;;;;;;0.65;0.30;;;32.90;43.90;;;;;;5010828;28;20026;-74
2022/07/11 09:10:17;;;;;;;0.73;0.40;;;33.60;42.60;;;;;;5010825;28;20076;-75
2022/07/11 09:13:14;;;;;;;1.83;0.63;;;33.50;40.50;;;;;;5031601;23;20207;-79
2022/07/11 09:15:50;;;;;;;1.30;0.40;;;34.20;41.20;;;;;;5010926;28;20041;-79
2022/07/11 09:18:28;;;;;;;1.02;0.40;;;34.10;40.20;;;;;;5013086;28;20026;-79
2022/07/11 09:26:36;;;;;;;1.17;0.30;;;34.80;41.00;;;;;;5010397;28;20394;-80
2022/07/11 09:29:07;;;;;;;1.27;0.30;;;35.30;38.90;;;;;;5011414;28;20360;-79
2022/07/11 09:31:33;;;;;;;1.13;0.20;;;35.90;39.30;;;;;;5011845;28;20538;-79
2022/07/11 09:34:01;;;;;;;1.60;0.40;;;35.90;38.00;;;;;;5011589;28;20026;-79
2022/07/11 09:36:43;;;;;;;0.52;0.20;;;36.40;37.60;;;;;;5010194;28;20482;-80
2022/07/11 09:39:22;;;;;;;0.57;0.30;;;37.10;36.20;;;;;;5011568;28;20584;-80
2022/07/11 09:41:50;;;;;;;0.77;0.30;;;37.20;37.00;;;;;;5009814;28;20026;-80
2022/07/11 09:44:26;;;;;;;0.60;0.30;;;37.50;35.70;;;;;;5010202;28;20046;-80
2022/07/11 09:46:53;;;;;;;0.85;0.30;;;37.70;33.60;;;;;;5011709;28;20026;-80
2022/07/11 09:49:34;;;;;;;1.55;0.30;;;37.00;34.60;;;;;;5011274;28;20030;-80
2022/07/11 09:52:06;;;;;;;1.08;0.40;;;37.30;34.90;;;;;;5011240;28;20105;-80
2022/07/11 09:54:32;;;;;;;0.38;0.30;;;37.80;36.00;;;;;;5011262;28;20483;-80
2022/07/11 09:56:58;;;;;;;0.30;0.30;;;38.00;36.40;;;;;;5011379;28;20013;-81
2022/07/11 09:59:24;;;;;;;1.10;0.40;;;38.60;34.60;;;;;;5010645;28;20022;-80
2022/07/11 10:01:49;;;;;;;0.63;0.30;;;38.10;33.20;;;;;;5010868;28;20060;-80
2022/07/11 10:04:16;;;;;;;0.45;0.30;;;38.20;34.20;;;;;;5011343;28;20022;-80
2022/07/11 10:06:42;;;;;;;0.93;0.30;;;38.40;34.90;;;;;;5010824;28;20064;-80
2022/07/11 10:09:07;;;;;;;0.75;0.40;;;38.80;34.10;;;;;;5011015;28;20599;-80
2022/07/11 10:11:34;;;;;;;0.52;0.30;;;39.20;32.90;;;;;;5011428;28;20596;-80
2022/07/11 10:14:01;;;;;;;0.55;0.22;;;39.10;33.70;;;;;;5035113;23;20048;-74
2022/07/11 10:16:48;;;;;;;1.55;0.30;;;39.20;32.40;;;;;;5029487;28;20485;-74
2022/07/11 10:19:32;;;;;;;1.30;0.32;;;39.20;33.30;;;;;;5030280;28;20104;-74
2022/07/11 10:22:11;;;;;;;0.73;0.38;;;39.10;32.90;;;;;;5031544;28;20017;-74
2022/07/11 10:25:03;;;;;;;0.28;0.28;;;39.30;33.20;;;;;;5030415;28;20022;-74
2022/07/11 10:27:56;;;;;;;0.65;0.50;;;39.60;33.20;;;;;;5030019;28;20136;-75
2022/07/11 10:30:43;;;;;;;1.48;0.45;;;39.90;33.70;;;;;;5029859;28;20032;-74
2022/07/11 10:33:08;;;;;;;0.80;0.30;;;39.70;31.30;;;;;;5029892;28;20028;-74
2022/07/11 10:35:34;;;;;;;0.30;0.25;;;39.50;32.50;;;;;;5030001;28;20029;-75
2022/07/11 10:38:05;;;;;;;0.80;0.35;;;39.40;33.70;;;;;;5030446;28;20025;-74
2022/07/11 10:40:51;;;;;;;2.03;0.30;;;40.00;33.40;;;;;;5016975;28;20462;-75
2022/07/11 10:43:26;;;;;;;0.47;0.38;;;40.40;32.50;;;;;;5012969;28;20026;-75
2022/07/11 10:46:01;;;;;;;0.40;0.30;;;40.80;30.70;;;;;;5030213;28;20021;-74
2022/07/11 10:48:29;;;;;;;2.83;0.32;;;40.70;30.60;;;;;;5030067;28;20020;-74
2022/07/11 10:51:18;;;;;;;1.05;0.40;;;40.40;31.90;;;;;;5030353;28;20109;-74
2022/07/11 10:53:49;;;;;;;0.30;0.30;;;40.50;30.80;;;;;;4981097;28;20487;-74
2022/07/11 10:56:27;;;;;;;1.95;0.30;;;40.80;31.20;;;;;;5029983;28;20367;-74
2022/07/11 10:59:13;;;;;;;2.30;0.47;;;41.30;32.00;;;;;;5029955;28;20096;-75
2022/07/11 11:02:10;;;;;;;1.45;0.40;;;41.80;29.80;;;;;;5020429;28;20024;-74
2022/07/11 11:04:48;;;;;;;0.77;0.43;;;41.90;29.90;;;;;;5023488;28;20018;-74
2022/07/11 11:07:43;;;;;;;1.05;0.25;;;41.40;29.70;;;;;;5029699;28;20025;-74
2022/07/11 11:10:32;;;;;;;1.55;0.40;;;41.90;32.30;;;;;;5028937;28;20033;-74
2022/07/11 11:13:04;;;;;;;1.17;0.40;;;42.30;30.10;;;;;;5042080;23;20090;-78
2022/07/11 11:15:42;;;;;;;0.82;0.30;;;42.40;30.10;;;;;;5007280;28;20054;-78
2022/07/11 11:18:23;;;;;;;0.40;0.30;;;42.50;30.00;;;;;;5010920;28;20456;-80
2022/07/11 11:21:00;;;;;;;0.77;0.30;;;42.40;30.00;;;;;;5010294;28;20505;-80
2022/07/11 11:23:35;;;;;;;2.10;0.90;;;43.00;29.90;;;;;;5010887;28;20058;-80
2022/07/11 11:26:44;;;;;;;0.40;0.30;;;43.80;29.90;;;;;;4998010;28;20030;-80
2022/07/11 11:29:10;;;;;;;0.68;0.22;;;43.20;30.80;;;;;;5004372;28;20022;-80
2022/07/11 11:31:36;;;;;;;0.30;0.20;;;43.60;29.20;;;;;;5014020;28;20022;-81
2022/07/11 11:34:03;;;;;;;1.05;0.30;;;44.00;28.60;;;;;;5013517;28;20426;-80
2022/07/11 11:36:30;;;;;;;0.60;0.22;;;43.40;30.50;;;;;;5013455;28;20042;-79
2022/07/11 11:38:56;;;;;;;0.98;0.20;;;44.10;28.50;;;;;;5013853;28;20084;-77
2022/07/11 11:41:30;;;;;;;0.57;0.30;;;44.20;28.10;;;;;;5013878;28;20482;-78
2022/07/11 11:44:01;;;;;;;1.65;0.20;;;43.40;28.20;;;;;;5012058;28;20017;-78
2022/07/11 11:46:29;;;;;;;0.65;0.20;;;42.30;29.10;;;;;;5013353;28;20030;-78
2022/07/11 11:48:58;;;;;;;0.85;0.28;;;42.70;29.60;;;;;;5013526;28;20018;-78
2022/07/11 11:51:27;;;;;;;1.33;0.30;;;43.00;29.20;;;;;;5000002;28;20018;-80
2022/07/11 11:53:55;;;;;;;3.47;0.40;;;42.40;29.20;;;;;;5013423;28;20018;-80
2022/07/11 11:56:34;;;;;;;0.45;0.20;;;41.50;29.00;;;;;;5013502;28;20073;-80
2022/07/11 11:59:08;;;;;;;1.10;0.47;;;41.30;29.80;;;;;;5013025;28;20026;-80
2022/07/11 12:01:36;;;;;;;0.52;0.30;;;41.80;30.30;;;;;;5013607;28;20120;-80
2022/07/11 12:04:10;;;;;;;0.65;0.30;;;42.40;30.00;;;;;;5013063;28;20020;-80
2022/07/11 12:06:53;;;;;;;1.67;0.40;;;42.60;29.30;;;;;;5012951;28;20089;-80
2022/07/11 12:14:49;;;;;;;0.20;0.20;;;43.60;30.70;;;;;;5048872;23;20144;-82
2022/07/11 12:17:15;;;;;;;0.63;0.22;;;44.00;29.40;;;;;;5033885;28;20025;-82
2022/07/11 12:19:43;;;;;;;1.58;0.30;;;44.00;27.50;;;;;;5033918;28;20025;-82
2022/07/11 12:22:09;;;;;;;0.70;0.30;;;44.50;28.90;;;;;;5033762;28;20033;-81
2022/07/11 12:24:35;;;;;;;0.60;0.20;;;44.80;28.70;;;;;;5032595;28;20020;-82
2022/07/11 12:27:01;;;;;;;1.00;0.73;;;44.80;28.40;;;;;;5032795;28;20014;-82
2022/07/11 12:29:27;;;;;;;1.15;0.25;;;45.20;28.50;;;;;;5032170;28;20037;-82
2022/07/11 12:32:01;;;;;;;1.33;0.20;;;44.90;27.00;;;;;;5032431;28;20028;-82
2022/07/11 12:34:32;;;;;;;0.65;0.20;;;45.20;27.70;;;;;;5032317;28;20517;-82
2022/07/11 12:37:02;;;;;;;0.40;0.13;;;44.80;27.60;;;;;;5032718;28;20048;-82
2022/07/11 12:39:30;;;;;;;0.13;0.13;;;45.10;27.60;;;;;;5032072;28;20022;-82
2022/07/11 12:41:57;;;;;;;1.95;0.30;;;44.40;27.50;;;;;;5031216;28;20047;-82
2022/07/11 12:47:09;;;;;;;0.88;0.40;;;43.90;29.10;;;;;;5023342;28;20036;-81
2022/07/11 12:49:35;;;;;;;1.00;0.30;;;43.60;28.50;;;;;;5032482;28;20432;-82
2022/07/11 12:52:02;;;;;;;0.47;0.22;;;43.70;29.10;;;;;;5032299;28;20030;-82
2022/07/11 12:54:33;;;;;;;0.77;0.35;;;44.20;27.70;;;;;;5032347;28;20060;-82
2022/07/11 12:57:01;;;;;;;1.05;0.30;;;44.30;29.70;;;;;;5032428;28;20029;-82
2022/07/11 12:59:29;;;;;;;1.73;0.30;;;45.70;28.70;;;;;;5031699;28;20017;-82
2022/07/11 13:01:58;;;;;;;0.38;0.20;;;44.90;26.40;;;;;;5031947;28;20025;-82
2022/07/11 13:04:47;;;;;;;1.20;0.20;;;43.60;27.80;;;;;;5032207;28;20049;-82
2022/07/11 13:10:17;;;;;;;0.30;0.20;;;43.20;28.10;;;;;;5031879;28;20036;-81